TimeEET,TemperatureF,Dew PointF,Humidity,Sea Level PressureIn,VisibilityMPH,Wind Direction,Wind SpeedMPH,Gust SpeedMPH,PrecipitationIn,Events,Conditions,WindDirDegrees,DateUTC
2:00 AM,68.0,57.2,68,29.89,-9999.0,NW,10.4,-,N/A,,Clear,310,2013-06-13 00:00:00
3:00 AM,66.2,57.2,73,29.89,-9999.0,WNW,8.1,-,N/A,,Clear,300,2013-06-13 01:00:00
4:00 AM,64.4,57.2,77,29.89,-9999.0,NW,6.9,-,N/A,,Clear,310,2013-06-13 02:00:00
5:00 AM,64.4,59.0,83,29.89,-9999.0,WNW,8.1,-,N/A,,Clear,290,2013-06-13 03:00:00
6:00 AM,66.2,59.0,78,29.89,-9999.0,West,8.1,-,N/A,,Clear,280,2013-06-13 04:00:00
7:00 AM,71.6,50.0,46,29.92,-9999.0,West,8.1,-,N/A,,Clear,280,2013-06-13 05:00:00
8:00 AM,73.4,46.4,38,29.92,-9999.0,NW,10.4,-,N/A,,Clear,310,2013-06-13 06:00:00
9:00 AM,77.0,46.4,34,29.92,-9999.0,WNW,9.2,-,N/A,,Clear,290,2013-06-13 07:00:00
10:00 AM,78.8,46.4,32,29.92,-9999.0,NW,9.2,-,N/A,,Clear,310,2013-06-13 08:00:00
11:00 AM,80.6,44.6,28,29.92,-9999.0,NW,5.8,-,N/A,,Clear,320,2013-06-13 09:00:00
12:00 PM,82.4,44.6,26,29.89,-9999.0,WNW,9.2,-,N/A,,Clear,300,2013-06-13 10:00:00
1:00 PM,84.2,44.6,25,29.86,-9999.0,NW,4.6,-,N/A,,Clear,310,2013-06-13 11:00:00
1:32 PM,82.4,44.6,26,29.89,-9999.0,WNW,9.2,-,N/A,,Clear,300,2013-06-13 11:32:00
2:00 PM,86.0,42.8,22,29.86,-9999.0,WNW,11.5,-,N/A,,Clear,300,2013-06-13 12:00:00
3:00 PM,86.0,41.0,20,29.86,-9999.0,West,15.0,-,N/A,,Clear,270,2013-06-13 13:00:00
4:00 PM,86.0,35.6,17,29.86,-9999.0,WNW,16.1,-,N/A,,Clear,300,2013-06-13 14:00:00
7:50 PM,75.2,53.6,47,29.92,-9999.0,NW,18.4,-,N/A,,Clear,310,2013-06-13 17:50:00
8:00 PM,75.2,53.6,47,29.92,-9999.0,NW,18.4,-,N/A,,Clear,310,2013-06-13 18:00:00
8:50 PM,71.6,55.4,57,29.92,-9999.0,NW,15.0,-,N/A,,Clear,310,2013-06-13 18:50:00
10:00 PM,69.8,55.4,60,29.95,-9999.0,WNW,13.8,-,N/A,,Clear,300,2013-06-13 20:00:00
11:00 PM,68.0,55.4,64,29.95,-9999.0,NNW,5.8,-,N/A,,Clear,330,2013-06-13 21:00:00